Airport ID:KM91
Update Time (UTC):17/06/2024 22:04
Wind Speed (Knots):2
Wind Direction (Magnetic):200
Temperature (°C):32
Dew Point (°C):22
Humidity (%):58
Altimeter (inHg):29.99
Density Altitude (Feet):3100
Visibility:10+
Clouds (Hundreds of feet):BKN050 BKN065 BKN090
Present Weather:
METAR:METAR KM91 172200Z AUTO VRB04KT 10SM BKN050 BKN065 32/22 A2999 RMK A01

The data displayed is for advisory purposes only and is not to be used for flight planning or operations.